Coral Leaf — PHNI — position and weather

sailwx.info

Track history (hours):
 
Tides and Currents Weather Stations Pressure Air Temp Water Temp Dewpoint Dewpoint Depression Visibility Wind Speed Wind Dir Waves Ship Positions

Coral Leaf

Last reported at 2016-Jul-30 14:33 UTC. Time now 2016-Jul-30 14:57 UTC.
Position N 51°16' E 004°20'.

Length 108 m; draft 6.8 m.

Type: Ship (hazmat cat A). MMSI: 244036000.

Date/timePositionNaut miles runAvg speedWind from/ knotsBaromVisibWave heightAir tempDewpointWater temp
2016-Jul-30 14:33N 51°16' E 004°20'0 0.0
2016-Jul-30 13:33N 51°16' E 004°20'0 0.0
2016-Jul-30 12:33N 51°16' E 004°20'0 0.0
2016-Jul-30 11:33N 51°16' E 004°20'0 0.0
2016-Jul-30 10:32N 51°16' E 004°20'0 0.0
2016-Jul-30 09:32N 51°16' E 004°20'0 0.0
2016-Jul-30 08:32N 51°16' E 004°20'0 0.0
2016-Jul-30 07:32N 51°16' E 004°20'0 0.0
2016-Jul-30 06:32N 51°16' E 004°20'0 0.0
2016-Jul-30 05:32N 51°16' E 004°20'0 0.0
2016-Jul-30 04:29N 51°16' E 004°20'0 0.0
2016-Jul-30 03:32N 51°16' E 004°20'0 0.0
2016-Jul-30 02:32N 51°16' E 004°20'0 0.0
2016-Jul-30 01:32N 51°16' E 004°20'0 0.0
2016-Jul-30 00:31N 51°16' E 004°20'0 0.0
2016-Jul-29 23:31N 51°16' E 004°20'0 0.0
2016-Jul-29 22:31N 51°16' E 004°20'0 0.0
2016-Jul-29 21:28N 51°16' E 004°20'0 0.0
2016-Jul-29 20:28N 51°16' E 004°20'0 0.0
2016-Jul-29 19:31N 51°16' E 004°20'0 0.0
2016-Jul-29 18:31N 51°16' E 004°20'1 1.0
2016-Jul-29 17:33N 51°17' E 004°20'1 0.9
2016-Jul-29 16:34N 51°17' E 004°19'8 8.4
2016-Jul-29 15:33N 51°22' E 004°08'8 7.9
2016-Jul-29 14:33N 51°22' E 003°55'1010.0
2016-Jul-29 13:34N 51°26' E 003°41'9 9.2
2016-Jul-29 12:34N 51°25' E 003°26'1312.6
2016-Jul-29 11:33N 51°24' E 003°06'1413.9
2016-Jul-29 10:34N 51°22' E 002°44'5 5.5
2016-Jul-29 09:34N 51°25' E 002°37'0 0.1
2016-Jul-29 08:32N 51°25' E 002°37'0 0.0
2016-Jul-29 07:32N 51°25' E 002°37'0 0.0
2016-Jul-29 06:32N 51°25' E 002°37'0 0.0
2016-Jul-29 05:32N 51°25' E 002°37'0 0.2
2016-Jul-29 04:32N 51°25' E 002°37'0 0.0
2016-Jul-29 03:32N 51°25' E 002°37'0 0.2
2016-Jul-29 02:32N 51°25' E 002°37'0 0.1
2016-Jul-29 01:32N 51°25' E 002°37'0 0.0
2016-Jul-29 00:32N 51°25' E 002°37'0 0.0
2016-Jul-28 23:32N 51°25' E 002°37'0 0.0
2016-Jul-28 22:32N 51°25' E 002°37'0 0.0
2016-Jul-28 21:32N 51°25' E 002°37'0 0.0
2016-Jul-28 20:29N 51°25' E 002°37'0 0.0
2016-Jul-28 19:32N 51°25' E 002°37'0 0.0
2016-Jul-28 18:32N 51°25' E 002°37'0 0.0
2016-Jul-28 17:32N 51°25' E 002°37'0 0.1
2016-Jul-28 16:32N 51°25' E 002°37'0 0.2
2016-Jul-28 15:32N 51°25' E 002°37'0 0.0
2016-Jul-28 14:32N 51°25' E 002°37'0 0.2
2016-Jul-28 13:32N 51°25' E 002°37'0 0.2
2016-Jul-28 12:29N 51°25' E 002°37'0 0.1
2016-Jul-28 11:31N 51°25' E 002°37'0 0.0
2016-Jul-28 10:25N 51°25' E 002°37'0 0.0
2016-Jul-28 08:07N 51°25' E 002°37'0 0.0
2016-Jul-28 07:28N 51°25' E 002°37'0 0.1
2016-Jul-28 06:28N 51°25' E 002°37'0 0.0
2016-Jul-28 04:28N 51°25' E 002°37'0 0.0
2016-Jul-28 00:28N 51°25' E 002°37'0 0.0
2016-Jul-27 22:13N 51°25' E 002°37'0 0.0
2016-Jul-27 20:16N 51°25' E 002°37'0 0.0
2016-Jul-27 19:25N 51°25' E 002°37'0 0.0
2016-Jul-27 18:31N 51°25' E 002°37'0 0.0
2016-Jul-27 17:34N 51°25' E 002°37'0 0.0
2016-Jul-27 16:27N 51°25' E 002°37'0 0.1
2016-Jul-27 15:33N 51°25' E 002°37'0 0.2
2016-Jul-27 14:09N 51°25' E 002°37'0 0.1
2016-Jul-27 13:24N 51°25' E 002°37'0 0.1
2016-Jul-27 11:24N 51°25' E 002°37'0 0.0
2016-Jul-27 09:21N 51°25' E 002°37'0 0.0
2016-Jul-27 08:09N 51°25' E 002°37'0 0.0
2016-Jul-27 06:33N 51°25' E 002°37'0 0.0
2016-Jul-27 05:27N 51°25' E 002°37'0 0.0
2016-Jul-27 04:30N 51°25' E 002°37'0 0.1
2016-Jul-27 02:33N 51°25' E 002°37'0 0.1
2016-Jul-27 00:33N 51°25' E 002°37'0 0.2
2016-Jul-26 23:30N 51°25' E 002°37'0 0.1
2016-Jul-26 22:33N 51°25' E 002°37'0 0.0
2016-Jul-26 21:32N 51°25' E 002°37'0 0.0
2016-Jul-26 20:29N 51°25' E 002°37'0 0.0
2016-Jul-26 19:32N 51°25' E 002°37'0 0.0
2016-Jul-26 18:29N 51°25' E 002°37'0 0.0
2016-Jul-26 17:32N 51°25' E 002°37'0 0.0
2016-Jul-26 16:29N 51°25' E 002°37'0 0.0
2016-Jul-26 15:32N 51°25' E 002°37'0 0.1
2016-Jul-26 14:17N 51°25' E 002°37'0 0.0
2016-Jul-26 13:32N 51°25' E 002°37'0 0.0
2016-Jul-26 12:32N 51°25' E 002°37'0 0.0
2016-Jul-26 11:32N 51°25' E 002°37'0 0.0
2016-Jul-26 10:26N 51°25' E 002°37'0 0.0
2016-Jul-26 09:23N 51°25' E 002°37'0 0.1
2016-Jul-26 08:25N 51°25' E 002°37'0 0.0
2016-Jul-26 07:31N 51°25' E 002°37'0 0.0
2016-Jul-26 06:31N 51°25' E 002°37'0 0.0
2016-Jul-26 05:28N 51°25' E 002°37'3 3.4
2016-Jul-26 04:33N 51°23' E 002°34'1414.2
2016-Jul-26 03:33N 51°17' E 002°14'1414.0
2016-Jul-26 02:34N 51°09' E 001°55'7 7.3
2016-Jul-26 01:34N 51°02' E 001°51'1413.5
2016-Jul-26 00:33N 51°03' E 002°13'4 4.5
2016-Jul-25 23:33N 51°03' E 002°20'3 2.8
2016-Jul-25 22:32N 51°02' E 002°16'0 0.0
2016-Jul-25 21:29N 51°02' E 002°16'0 0.0
2016-Jul-25 20:32N 51°02' E 002°16'0 0.0
2016-Jul-25 19:29N 51°02' E 002°16'0 0.0
2016-Jul-25 18:32N 51°02' E 002°16'0 0.0
2016-Jul-25 17:32N 51°02' E 002°16'0 0.0
2016-Jul-25 16:32N 51°02' E 002°16'0 0.0
2016-Jul-25 15:32N 51°02' E 002°16'0 0.0
2016-Jul-25 14:23N 51°02' E 002°16'0 0.0
2016-Jul-25 13:32N 51°02' E 002°16'0 0.0
2016-Jul-25 12:32N 51°02' E 002°16'0 0.0
2016-Jul-25 11:32N 51°02' E 002°16'0 0.0
2016-Jul-25 10:29N 51°02' E 002°16'0 0.0
2016-Jul-25 09:32N 51°02' E 002°16'0 0.0
2016-Jul-25 08:31N 51°02' E 002°16'0 0.0
2016-Jul-25 07:28N 51°02' E 002°16'0 0.0
2016-Jul-25 06:25N 51°02' E 002°16'0 0.0
2016-Jul-25 05:22N 51°02' E 002°16'0 0.0
2016-Jul-25 04:28N 51°02' E 002°16'0 0.0
2016-Jul-25 03:25N 51°02' E 002°16'0 0.0
2016-Jul-25 01:31N 51°02' E 002°16'0 0.0
2016-Jul-25 00:31N 51°02' E 002°16'0 0.0
2016-Jul-24 23:25N 51°02' E 002°16'0 0.0
2016-Jul-24 21:34N 51°02' E 002°16'3 3.2
2016-Jul-24 20:33N 51°03' E 002°20'8 8.3
2016-Jul-24 19:34N 51°03' E 002°07'1413.8
2016-Jul-24 18:33N 51°03' E 001°45'9 9.3
2016-Jul-24 17:33N 51°13' E 001°45'1211.7
2016-Jul-24 16:33N 51°23' E 001°55'1211.6
2016-Jul-24 15:33N 51°32' E 002°06'1312.6
2016-Jul-24 14:33N 51°42' E 002°19'1414.0
2016-Jul-24 13:33N 51°53' E 002°33'1615.3
2016-Jul-24 12:31N 52°05' E 002°50'1615.7
2016-Jul-24 11:29N 52°17' E 003°06'1515.7
2016-Jul-24 10:33N 52°29' E 003°21'1515.4
2016-Jul-24 09:33N 52°41' E 003°36'1514.4
2016-Jul-24 08:32N 52°53' E 003°51'1413.8
2016-Jul-24 07:33N 53°02' E 004°08'1313.5
2016-Jul-24 06:34N 53°11' E 004°25'1414.0
2016-Jul-24 05:33N 53°24' E 004°33'1514.5
2016-Jul-24 04:33N 53°32' E 004°53'1616.3
2016-Jul-24 03:33N 53°38' E 005°19'1615.9
2016-Jul-24 02:33N 53°43' E 005°44'1515.3
2016-Jul-24 01:33N 53°48' E 006°09'1414.4
2016-Jul-24 00:33N 53°52' E 006°32'1414.0
2016-Jul-23 23:33N 53°55' E 006°55'1413.5
2016-Jul-23 22:33N 53°58' E 007°18'1414.1
2016-Jul-23 21:33N 54°01' E 007°41'1514.9
2016-Jul-23 20:33N 54°01' E 008°06'1615.9
2016-Jul-23 19:33N 53°58' E 008°33'1716.9
2016-Jul-23 18:34N 53°51' E 008°59'1313.1
2016-Jul-23 17:34N 53°50' E 009°21'1110.4
2016-Jul-23 16:32N 53°40' E 009°30'0 0.0
2016-Jul-23 15:32N 53°40' E 009°30'0 0.0
2016-Jul-23 14:32N 53°40' E 009°30'0 0.0
2016-Jul-23 13:32N 53°40' E 009°30'0 0.1
2016-Jul-23 12:34N 53°40' E 009°30'1 1.3
2016-Jul-23 11:33N 53°39' E 009°31'0 0.0
2016-Jul-23 10:33N 53°39' E 009°31'0 0.0
2016-Jul-23 09:30N 53°39' E 009°31'0 0.0
2016-Jul-23 08:33N 53°39' E 009°31'0 0.0
2016-Jul-23 07:33N 53°39' E 009°31'0 0.0
2016-Jul-23 06:33N 53°39' E 009°31'0 0.0
2016-Jul-23 04:33N 53°39' E 009°31'0 0.0
2016-Jul-23 03:33N 53°39' E 009°31'0 0.0
2016-Jul-23 02:33N 53°39' E 009°31'0 0.0
2016-Jul-23 01:33N 53°39' E 009°31'0 0.0
2016-Jul-23 00:33N 53°39' E 009°31'0 0.0
2016-Jul-22 23:33N 53°39' E 009°31'0 0.0
2016-Jul-22 22:33N 53°39' E 009°31'0 0.0
2016-Jul-22 21:33N 53°39' E 009°31'0 0.0
2016-Jul-22 20:33N 53°39' E 009°31'0 0.0
2016-Jul-22 19:33N 53°39' E 009°31'0 0.0
2016-Jul-22 18:32N 53°39' E 009°31'0 0.0
2016-Jul-22 17:32N 53°39' E 009°31'0 0.0
2016-Jul-22 16:32N 53°39' E 009°31'0 0.0
2016-Jul-22 15:32N 53°39' E 009°31'0 0.0
2016-Jul-22 14:32N 53°39' E 009°31'0 0.0
2016-Jul-22 13:32N 53°39' E 009°31'0 0.0
2016-Jul-22 12:32N 53°39' E 009°31'0 0.0
2016-Jul-22 11:32N 53°39' E 009°31'0 0.0
2016-Jul-22 10:32N 53°39' E 009°31'0 0.0
2016-Jul-22 09:32N 53°39' E 009°31'0 0.0
2016-Jul-22 08:32N 53°39' E 009°31'0 0.0
2016-Jul-22 07:32N 53°39' E 009°31'0 0.0
2016-Jul-22 04:32N 53°39' E 009°31'0 0.0
2016-Jul-22 03:32N 53°39' E 009°31'0 0.0
2016-Jul-22 02:32N 53°39' E 009°31'0 0.0
2016-Jul-22 01:29N 53°39' E 009°31'0 0.0
2016-Jul-22 00:32N 53°39' E 009°31'0 0.0
2016-Jul-21 23:32N 53°39' E 009°31'0 0.0
2016-Jul-21 22:32N 53°39' E 009°31'0 0.0
2016-Jul-21 21:32N 53°39' E 009°31'0 0.0
2016-Jul-21 20:32N 53°39' E 009°31'0 0.0
2016-Jul-21 19:32N 53°39' E 009°31'0 0.0
2016-Jul-21 18:32N 53°39' E 009°31'0 0.0
2016-Jul-21 17:32N 53°39' E 009°31'0 0.0
2016-Jul-21 16:32N 53°39' E 009°31'0 0.0
2016-Jul-21 15:29N 53°39' E 009°31'0 0.0
2016-Jul-21 14:32N 53°39' E 009°31'0 0.0
2016-Jul-21 13:32N 53°39' E 009°31'0 0.0
2016-Jul-21 12:32N 53°39' E 009°31'0 0.0
2016-Jul-21 11:32N 53°39' E 009°31'0 0.0
2016-Jul-21 10:32N 53°39' E 009°31'0 0.0
2016-Jul-21 09:32N 53°39' E 009°31'0 0.0
2016-Jul-21 08:32N 53°39' E 009°31'0 0.0
2016-Jul-21 07:32N 53°39' E 009°31'0 0.0
2016-Jul-21 06:32N 53°39' E 009°31'0 0.0
2016-Jul-21 05:32N 53°39' E 009°31'0 0.0
2016-Jul-21 04:32N 53°39' E 009°31'0 0.0
2016-Jul-21 03:32N 53°39' E 009°31'0 0.0
2016-Jul-21 02:32N 53°39' E 009°31'0 0.0
2016-Jul-21 01:32N 53°39' E 009°31'0 0.0
2016-Jul-21 00:32N 53°39' E 009°31'0 0.0
2016-Jul-20 23:32N 53°39' E 009°31'0 0.0
2016-Jul-20 22:32N 53°39' E 009°31'0 0.0
2016-Jul-20 21:32N 53°39' E 009°31'0 0.0
2016-Jul-20 20:32N 53°39' E 009°31'0 0.0
2016-Jul-20 19:32N 53°39' E 009°31'0 0.0
2016-Jul-20 18:32N 53°39' E 009°31'0 0.0
2016-Jul-20 17:31N 53°39' E 009°31'0 0.0
2016-Jul-20 16:31N 53°39' E 009°31'0 0.0
2016-Jul-20 15:31N 53°39' E 009°31'  
Track history (hours):
 
Tides and Currents Weather Stations Pressure Air Temp Water Temp Dewpoint Dewpoint Depression Visibility Wind Speed Wind Dir Waves Ship Positions

Coral Leaf

Last reported at 2016-Jul-30 14:33 UTC. Time now 2016-Jul-30 14:57 UTC.
Position N 51°16' E 004°20'.

Length 108 m; draft 6.8 m.

Type: Ship (hazmat cat A). MMSI: 244036000.

Date/timePositionNaut miles runAvg speedWind from/ knotsBaromVisibWave heightAir tempDewpointWater temp
2016-Jul-30 14:33N 51°16' E 004°20'0 0.0
2016-Jul-30 13:33N 51°16' E 004°20'0 0.0
2016-Jul-30 12:33N 51°16' E 004°20'0 0.0
2016-Jul-30 11:33N 51°16' E 004°20'0 0.0
2016-Jul-30 10:32N 51°16' E 004°20'0 0.0
2016-Jul-30 09:32N 51°16' E 004°20'0 0.0
2016-Jul-30 08:32N 51°16' E 004°20'0 0.0
2016-Jul-30 07:32N 51°16' E 004°20'0 0.0
2016-Jul-30 06:32N 51°16' E 004°20'0 0.0
2016-Jul-30 05:32N 51°16' E 004°20'0 0.0
2016-Jul-30 04:29N 51°16' E 004°20'0 0.0
2016-Jul-30 03:32N 51°16' E 004°20'0 0.0
2016-Jul-30 02:32N 51°16' E 004°20'0 0.0
2016-Jul-30 01:32N 51°16' E 004°20'0 0.0
2016-Jul-30 00:31N 51°16' E 004°20'0 0.0
2016-Jul-29 23:31N 51°16' E 004°20'0 0.0
2016-Jul-29 22:31N 51°16' E 004°20'0 0.0
2016-Jul-29 21:28N 51°16' E 004°20'0 0.0
2016-Jul-29 20:28N 51°16' E 004°20'0 0.0
2016-Jul-29 19:31N 51°16' E 004°20'0 0.0
2016-Jul-29 18:31N 51°16' E 004°20'1 1.0
2016-Jul-29 17:33N 51°17' E 004°20'1 0.9
2016-Jul-29 16:34N 51°17' E 004°19'8 8.4
2016-Jul-29 15:33N 51°22' E 004°08'8 7.9
2016-Jul-29 14:33N 51°22' E 003°55'1010.0
2016-Jul-29 13:34N 51°26' E 003°41'9 9.2
2016-Jul-29 12:34N 51°25' E 003°26'1312.6
2016-Jul-29 11:33N 51°24' E 003°06'1413.9
2016-Jul-29 10:34N 51°22' E 002°44'5 5.5
2016-Jul-29 09:34N 51°25' E 002°37'0 0.1
2016-Jul-29 08:32N 51°25' E 002°37'0 0.0
2016-Jul-29 07:32N 51°25' E 002°37'0 0.0
2016-Jul-29 06:32N 51°25' E 002°37'0 0.0
2016-Jul-29 05:32N 51°25' E 002°37'0 0.2
2016-Jul-29 04:32N 51°25' E 002°37'0 0.0
2016-Jul-29 03:32N 51°25' E 002°37'0 0.2
2016-Jul-29 02:32N 51°25' E 002°37'0 0.1
2016-Jul-29 01:32N 51°25' E 002°37'0 0.0
2016-Jul-29 00:32N 51°25' E 002°37'0 0.0
2016-Jul-28 23:32N 51°25' E 002°37'0 0.0
2016-Jul-28 22:32N 51°25' E 002°37'0 0.0
2016-Jul-28 21:32N 51°25' E 002°37'0 0.0
2016-Jul-28 20:29N 51°25' E 002°37'0 0.0
2016-Jul-28 19:32N 51°25' E 002°37'0 0.0
2016-Jul-28 18:32N 51°25' E 002°37'0 0.0
2016-Jul-28 17:32N 51°25' E 002°37'0 0.1
2016-Jul-28 16:32N 51°25' E 002°37'0 0.2
2016-Jul-28 15:32N 51°25' E 002°37'0 0.0
2016-Jul-28 14:32N 51°25' E 002°37'0 0.2
2016-Jul-28 13:32N 51°25' E 002°37'0 0.2
2016-Jul-28 12:29N 51°25' E 002°37'0 0.1
2016-Jul-28 11:31N 51°25' E 002°37'0 0.0
2016-Jul-28 10:25N 51°25' E 002°37'0 0.0
2016-Jul-28 08:07N 51°25' E 002°37'0 0.0
2016-Jul-28 07:28N 51°25' E 002°37'0 0.1
2016-Jul-28 06:28N 51°25' E 002°37'0 0.0
2016-Jul-28 04:28N 51°25' E 002°37'0 0.0
2016-Jul-28 00:28N 51°25' E 002°37'0 0.0
2016-Jul-27 22:13N 51°25' E 002°37'0 0.0
2016-Jul-27 20:16N 51°25' E 002°37'0 0.0
2016-Jul-27 19:25N 51°25' E 002°37'0 0.0
2016-Jul-27 18:31N 51°25' E 002°37'0 0.0
2016-Jul-27 17:34N 51°25' E 002°37'0 0.0
2016-Jul-27 16:27N 51°25' E 002°37'0 0.1
2016-Jul-27 15:33N 51°25' E 002°37'0 0.2
2016-Jul-27 14:09N 51°25' E 002°37'0 0.1
2016-Jul-27 13:24N 51°25' E 002°37'0 0.1
2016-Jul-27 11:24N 51°25' E 002°37'0 0.0
2016-Jul-27 09:21N 51°25' E 002°37'0 0.0
2016-Jul-27 08:09N 51°25' E 002°37'0 0.0
2016-Jul-27 06:33N 51°25' E 002°37'0 0.0
2016-Jul-27 05:27N 51°25' E 002°37'0 0.0
2016-Jul-27 04:30N 51°25' E 002°37'0 0.1
2016-Jul-27 02:33N 51°25' E 002°37'0 0.1
2016-Jul-27 00:33N 51°25' E 002°37'0 0.2
2016-Jul-26 23:30N 51°25' E 002°37'0 0.1
2016-Jul-26 22:33N 51°25' E 002°37'0 0.0
2016-Jul-26 21:32N 51°25' E 002°37'0 0.0
2016-Jul-26 20:29N 51°25' E 002°37'0 0.0
2016-Jul-26 19:32N 51°25' E 002°37'0 0.0
2016-Jul-26 18:29N 51°25' E 002°37'0 0.0
2016-Jul-26 17:32N 51°25' E 002°37'0 0.0
2016-Jul-26 16:29N 51°25' E 002°37'0 0.0
2016-Jul-26 15:32N 51°25' E 002°37'0 0.1
2016-Jul-26 14:17N 51°25' E 002°37'0 0.0
2016-Jul-26 13:32N 51°25' E 002°37'0 0.0
2016-Jul-26 12:32N 51°25' E 002°37'0 0.0
2016-Jul-26 11:32N 51°25' E 002°37'0 0.0
2016-Jul-26 10:26N 51°25' E 002°37'0 0.0
2016-Jul-26 09:23N 51°25' E 002°37'0 0.1
2016-Jul-26 08:25N 51°25' E 002°37'0 0.0
2016-Jul-26 07:31N 51°25' E 002°37'0 0.0
2016-Jul-26 06:31N 51°25' E 002°37'0 0.0
2016-Jul-26 05:28N 51°25' E 002°37'3 3.4
2016-Jul-26 04:33N 51°23' E 002°34'1414.2
2016-Jul-26 03:33N 51°17' E 002°14'1414.0
2016-Jul-26 02:34N 51°09' E 001°55'7 7.3
2016-Jul-26 01:34N 51°02' E 001°51'1413.5
2016-Jul-26 00:33N 51°03' E 002°13'4 4.5
2016-Jul-25 23:33N 51°03' E 002°20'3 2.8
2016-Jul-25 22:32N 51°02' E 002°16'0 0.0
2016-Jul-25 21:29N 51°02' E 002°16'0 0.0
2016-Jul-25 20:32N 51°02' E 002°16'0 0.0
2016-Jul-25 19:29N 51°02' E 002°16'0 0.0
2016-Jul-25 18:32N 51°02' E 002°16'0 0.0
2016-Jul-25 17:32N 51°02' E 002°16'0 0.0
2016-Jul-25 16:32N 51°02' E 002°16'0 0.0
2016-Jul-25 15:32N 51°02' E 002°16'0 0.0
2016-Jul-25 14:23N 51°02' E 002°16'0 0.0
2016-Jul-25 13:32N 51°02' E 002°16'0 0.0
2016-Jul-25 12:32N 51°02' E 002°16'0 0.0
2016-Jul-25 11:32N 51°02' E 002°16'0 0.0
2016-Jul-25 10:29N 51°02' E 002°16'0 0.0
2016-Jul-25 09:32N 51°02' E 002°16'0 0.0
2016-Jul-25 08:31N 51°02' E 002°16'0 0.0
2016-Jul-25 07:28N 51°02' E 002°16'0 0.0
2016-Jul-25 06:25N 51°02' E 002°16'0 0.0
2016-Jul-25 05:22N 51°02' E 002°16'0 0.0
2016-Jul-25 04:28N 51°02' E 002°16'0 0.0
2016-Jul-25 03:25N 51°02' E 002°16'0 0.0
2016-Jul-25 01:31N 51°02' E 002°16'0 0.0
2016-Jul-25 00:31N 51°02' E 002°16'0 0.0
2016-Jul-24 23:25N 51°02' E 002°16'0 0.0
2016-Jul-24 21:34N 51°02' E 002°16'3 3.2
2016-Jul-24 20:33N 51°03' E 002°20'8 8.3
2016-Jul-24 19:34N 51°03' E 002°07'1413.8
2016-Jul-24 18:33N 51°03' E 001°45'9 9.3
2016-Jul-24 17:33N 51°13' E 001°45'1211.7
2016-Jul-24 16:33N 51°23' E 001°55'1211.6
2016-Jul-24 15:33N 51°32' E 002°06'1312.6
2016-Jul-24 14:33N 51°42' E 002°19'1414.0
2016-Jul-24 13:33N 51°53' E 002°33'1615.3
2016-Jul-24 12:31N 52°05' E 002°50'1615.7
2016-Jul-24 11:29N 52°17' E 003°06'1515.7
2016-Jul-24 10:33N 52°29' E 003°21'1515.4
2016-Jul-24 09:33N 52°41' E 003°36'1514.4
2016-Jul-24 08:32N 52°53' E 003°51'1413.8
2016-Jul-24 07:33N 53°02' E 004°08'1313.5
2016-Jul-24 06:34N 53°11' E 004°25'1414.0
2016-Jul-24 05:33N 53°24' E 004°33'1514.5
2016-Jul-24 04:33N 53°32' E 004°53'1616.3
2016-Jul-24 03:33N 53°38' E 005°19'1615.9
2016-Jul-24 02:33N 53°43' E 005°44'1515.3
2016-Jul-24 01:33N 53°48' E 006°09'1414.4
2016-Jul-24 00:33N 53°52' E 006°32'1414.0
2016-Jul-23 23:33N 53°55' E 006°55'1413.5
2016-Jul-23 22:33N 53°58' E 007°18'1414.1
2016-Jul-23 21:33N 54°01' E 007°41'1514.9
2016-Jul-23 20:33N 54°01' E 008°06'1615.9
2016-Jul-23 19:33N 53°58' E 008°33'1716.9
2016-Jul-23 18:34N 53°51' E 008°59'1313.1
2016-Jul-23 17:34N 53°50' E 009°21'1110.4
2016-Jul-23 16:32N 53°40' E 009°30'0 0.0
2016-Jul-23 15:32N 53°40' E 009°30'0 0.0
2016-Jul-23 14:32N 53°40' E 009°30'0 0.0
2016-Jul-23 13:32N 53°40' E 009°30'0 0.1
2016-Jul-23 12:34N 53°40' E 009°30'1 1.3
2016-Jul-23 11:33N 53°39' E 009°31'0 0.0
2016-Jul-23 10:33N 53°39' E 009°31'0 0.0
2016-Jul-23 09:30N 53°39' E 009°31'0 0.0
2016-Jul-23 08:33N 53°39' E 009°31'0 0.0
2016-Jul-23 07:33N 53°39' E 009°31'0 0.0
2016-Jul-23 06:33N 53°39' E 009°31'0 0.0
2016-Jul-23 04:33N 53°39' E 009°31'0 0.0
2016-Jul-23 03:33N 53°39' E 009°31'0 0.0
2016-Jul-23 02:33N 53°39' E 009°31'0 0.0
2016-Jul-23 01:33N 53°39' E 009°31'0 0.0
2016-Jul-23 00:33N 53°39' E 009°31'0 0.0
2016-Jul-22 23:33N 53°39' E 009°31'0 0.0
2016-Jul-22 22:33N 53°39' E 009°31'0 0.0
2016-Jul-22 21:33N 53°39' E 009°31'0 0.0
2016-Jul-22 20:33N 53°39' E 009°31'0 0.0
2016-Jul-22 19:33N 53°39' E 009°31'0 0.0
2016-Jul-22 18:32N 53°39' E 009°31'0 0.0
2016-Jul-22 17:32N 53°39' E 009°31'0 0.0
2016-Jul-22 16:32N 53°39' E 009°31'0 0.0
2016-Jul-22 15:32N 53°39' E 009°31'0 0.0
2016-Jul-22 14:32N 53°39' E 009°31'0 0.0
2016-Jul-22 13:32N 53°39' E 009°31'0 0.0
2016-Jul-22 12:32N 53°39' E 009°31'0 0.0
2016-Jul-22 11:32N 53°39' E 009°31'0 0.0
2016-Jul-22 10:32N 53°39' E 009°31'0 0.0
2016-Jul-22 09:32N 53°39' E 009°31'0 0.0
2016-Jul-22 08:32N 53°39' E 009°31'0 0.0
2016-Jul-22 07:32N 53°39' E 009°31'0 0.0
2016-Jul-22 04:32N 53°39' E 009°31'0 0.0
2016-Jul-22 03:32N 53°39' E 009°31'0 0.0
2016-Jul-22 02:32N 53°39' E 009°31'0 0.0
2016-Jul-22 01:29N 53°39' E 009°31'0 0.0
2016-Jul-22 00:32N 53°39' E 009°31'0 0.0
2016-Jul-21 23:32N 53°39' E 009°31'0 0.0
2016-Jul-21 22:32N 53°39' E 009°31'0 0.0
2016-Jul-21 21:32N 53°39' E 009°31'0 0.0
2016-Jul-21 20:32N 53°39' E 009°31'0 0.0
2016-Jul-21 19:32N 53°39' E 009°31'0 0.0
2016-Jul-21 18:32N 53°39' E 009°31'0 0.0
2016-Jul-21 17:32N 53°39' E 009°31'0 0.0
2016-Jul-21 16:32N 53°39' E 009°31'0 0.0
2016-Jul-21 15:29N 53°39' E 009°31'0 0.0
2016-Jul-21 14:32N 53°39' E 009°31'0 0.0
2016-Jul-21 13:32N 53°39' E 009°31'0 0.0
2016-Jul-21 12:32N 53°39' E 009°31'0 0.0
2016-Jul-21 11:32N 53°39' E 009°31'0 0.0
2016-Jul-21 10:32N 53°39' E 009°31'0 0.0
2016-Jul-21 09:32N 53°39' E 009°31'0 0.0
2016-Jul-21 08:32N 53°39' E 009°31'0 0.0
2016-Jul-21 07:32N 53°39' E 009°31'0 0.0
2016-Jul-21 06:32N 53°39' E 009°31'0 0.0
2016-Jul-21 05:32N 53°39' E 009°31'0 0.0
2016-Jul-21 04:32N 53°39' E 009°31'0 0.0
2016-Jul-21 03:32N 53°39' E 009°31'0 0.0
2016-Jul-21 02:32N 53°39' E 009°31'0 0.0
2016-Jul-21 01:32N 53°39' E 009°31'0 0.0
2016-Jul-21 00:32N 53°39' E 009°31'0 0.0
2016-Jul-20 23:32N 53°39' E 009°31'0 0.0
2016-Jul-20 22:32N 53°39' E 009°31'0 0.0
2016-Jul-20 21:32N 53°39' E 009°31'0 0.0
2016-Jul-20 20:32N 53°39' E 009°31'0 0.0
2016-Jul-20 19:32N 53°39' E 009°31'0 0.0
2016-Jul-20 18:32N 53°39' E 009°31'0 0.0
2016-Jul-20 17:31N 53°39' E 009°31'0 0.0
2016-Jul-20 16:31N 53°39' E 009°31'0 0.0
2016-Jul-20 15:31N 53°39' E 009°31'  

Dump ship's entire track history